Sao Luis Gonzaga Do Maranhao, Brazil
Current Conditions -  °F | °C
As of 3:00 PM on Friday 24 Oct 2014 (Local Time) from SBSL Reporting Station
Scattered Clouds Scattered Clouds  
Wind Chill: 88°   Ceiling: Unl
Heat Index: 94°   Visibility: 6mi
Dew Point: 72°   Wind: 15mph
Humidity: 58%   Direction: 20°NNE
Pressure: 29.77"   Gusts: NA
Location:  4.38°S, 44.67°W
Report Text: SBSL 241800Z 02013KT 9999 SCT020 31/22 Q1008
Loading
Personal Weather Stations






























Interactive Weather Map
Tropical Storm Tracking
New forecast layout! Learn more

10-Day Weather Forecast

Advertisements
Track Severe Weather on mobile